createdAt,value
2017-07-18T00:00:40.287Z,3.20
2017-07-18T00:03:07.717Z,3.47
2017-07-18T00:05:35.140Z,2.97
2017-07-18T00:08:02.570Z,3.40
2017-07-18T00:10:30.804Z,2.93
2017-07-18T00:12:58.222Z,2.87
2017-07-18T00:15:25.639Z,2.80
2017-07-18T00:17:53.832Z,2.80
2017-07-18T00:20:21.262Z,2.60
2017-07-18T00:22:48.681Z,4.13
2017-07-18T00:25:16.110Z,3.20
2017-07-18T00:27:43.552Z,3.23
2017-07-18T00:30:11.745Z,3.50
2017-07-18T00:32:39.183Z,3.30
2017-07-18T00:35:07.364Z,3.10
2017-07-18T00:37:34.786Z,2.97
2017-07-18T00:40:02.206Z,2.90
2017-07-18T00:42:29.630Z,3.03
2017-07-18T00:44:57.057Z,2.90
2017-07-18T00:47:24.475Z,3.03
2017-07-18T00:49:51.900Z,3.30
2017-07-18T00:52:19.337Z,3.23
2017-07-18T00:54:47.521Z,2.90
2017-07-18T00:57:14.949Z,3.47
2017-07-18T00:59:42.372Z,2.67
2017-07-18T01:02:09.798Z,3.47
2017-07-18T01:04:37.221Z,3.53
2017-07-18T01:07:05.424Z,3.70
2017-07-18T01:09:32.845Z,3.53
2017-07-18T01:12:00.284Z,3.43
2017-07-18T01:14:27.697Z,3.60
2017-07-18T01:16:55.118Z,2.90
2017-07-18T01:19:23.295Z,3.37
2017-07-18T01:21:51.492Z,3.23
2017-07-18T01:24:18.909Z,4.00
2017-07-18T01:26:46.336Z,4.13
2017-07-18T01:29:13.766Z,3.30
2017-07-18T01:31:41.204Z,3.47
2017-07-18T01:34:09.397Z,3.30
2017-07-18T01:36:36.825Z,3.83
2017-07-18T01:39:05.020Z,3.30
2017-07-18T01:41:32.452Z,3.50
2017-07-18T01:44:00.650Z,3.40
2017-07-18T01:46:28.064Z,3.60
2017-07-18T01:48:55.505Z,3.63
2017-07-18T01:51:22.915Z,3.73
2017-07-18T01:53:50.345Z,3.37
2017-07-18T01:56:18.533Z,3.80
2017-07-18T01:58:45.965Z,3.30
2017-07-18T02:01:13.394Z,4.57
2017-07-18T02:03:40.814Z,4.00
2017-07-18T02:06:08.241Z,3.93
2017-07-18T02:08:36.438Z,3.40
2017-07-18T02:11:03.855Z,3.80
2017-07-18T02:13:31.278Z,3.10
2017-07-18T02:15:58.700Z,3.20
2017-07-18T02:18:26.117Z,3.07
2017-07-18T02:20:53.549Z,3.60
2017-07-18T02:23:20.973Z,3.93
2017-07-18T02:25:48.389Z,4.17
2017-07-18T02:28:15.810Z,3.90
2017-07-18T02:30:43.225Z,3.50
2017-07-18T02:33:10.657Z,3.77
2017-07-18T02:35:38.850Z,3.57
2017-07-18T02:38:07.053Z,3.57
2017-07-18T02:40:34.474Z,3.80
2017-07-18T02:43:02.677Z,3.70
2017-07-18T02:45:30.091Z,3.50
2017-07-18T02:47:57.534Z,6.77
2017-07-18T02:50:24.964Z,4.90
2017-07-18T02:52:52.384Z,4.20
2017-07-18T02:55:19.819Z,4.60
2017-07-18T02:57:47.995Z,4.10
2017-07-18T03:00:16.221Z,3.80
2017-07-18T03:02:43.628Z,4.20
2017-07-18T03:05:11.813Z,4.20
2017-07-18T03:07:39.259Z,5.67
2017-07-18T03:10:07.450Z,4.57
2017-07-18T03:12:34.941Z,4.63
2017-07-18T03:15:02.356Z,5.77
2017-07-18T03:17:29.785Z,4.87
2017-07-18T03:19:57.209Z,4.97
2017-07-18T03:22:24.653Z,4.87
2017-07-18T03:24:52.074Z,5.10
2017-07-18T03:27:19.511Z,5.10
2017-07-18T03:29:46.925Z,5.20
2017-07-18T03:32:14.363Z,5.53
2017-07-18T03:34:41.781Z,5.20
2017-07-18T03:37:09.224Z,5.33
2017-07-18T03:39:36.651Z,5.30
2017-07-18T03:42:04.081Z,4.83
2017-07-18T03:44:31.509Z,5.70
2017-07-18T03:46:59.705Z,5.10
2017-07-18T03:49:27.128Z,5.23
2017-07-18T03:51:55.333Z,4.73
2017-07-18T03:54:22.756Z,5.63
2017-07-18T03:56:50.210Z,5.10
2017-07-18T03:59:17.632Z,4.57
2017-07-18T04:01:45.064Z,4.63
2017-07-18T04:04:12.485Z,5.20
2017-07-18T04:06:40.687Z,5.30
2017-07-18T04:09:08.127Z,4.30
2017-07-18T04:11:36.314Z,4.67
2017-07-18T04:14:03.756Z,4.90
2017-07-18T04:16:31.958Z,5.77
2017-07-18T04:18:59.388Z,5.03
2017-07-18T04:21:27.583Z,5.10
2017-07-18T04:23:55.005Z,4.70
2017-07-18T04:26:23.193Z,5.87
2017-07-18T04:28:50.628Z,6.00
2017-07-18T04:31:18.081Z,4.97
2017-07-18T04:33:45.501Z,5.30
2017-07-18T04:36:12.924Z,5.47
2017-07-18T04:38:40.353Z,5.50
2017-07-18T04:41:08.556Z,5.20
2017-07-18T04:43:35.993Z,4.73
2017-07-18T04:46:04.182Z,4.63
2017-07-18T04:48:31.613Z,5.43
2017-07-18T04:50:59.812Z,3.93
2017-07-18T04:53:27.256Z,4.40
2017-07-18T04:55:55.442Z,4.07
2017-07-18T04:58:22.872Z,4.30
2017-07-18T05:00:51.077Z,5.17
2017-07-18T05:03:18.504Z,4.43
2017-07-18T05:05:46.705Z,4.70
2017-07-18T05:08:14.133Z,4.40
2017-07-18T05:10:42.314Z,3.80
2017-07-18T05:13:09.741Z,3.80
2017-07-18T05:15:37.160Z,4.10
2017-07-18T05:18:04.597Z,4.07
2017-07-18T05:20:32.028Z,4.00
2017-07-18T05:22:59.457Z,3.63
2017-07-18T05:25:26.885Z,3.10
2017-07-18T05:27:54.321Z,3.90
2017-07-18T05:30:21.737Z,3.20
2017-07-18T05:32:49.950Z,3.47
2017-07-18T05:35:17.389Z,3.70
2017-07-18T05:37:45.596Z,3.90
2017-07-18T05:40:13.018Z,4.13
2017-07-18T05:42:41.264Z,4.13
2017-07-18T05:45:08.713Z,3.73
2017-07-18T05:47:36.139Z,3.63
2017-07-18T05:50:03.559Z,3.70
2017-07-18T05:52:31.754Z,3.80
2017-07-18T05:54:59.192Z,3.10
2017-07-18T05:57:27.381Z,4.13
2017-07-18T05:59:54.862Z,3.93
2017-07-18T06:02:22.316Z,3.60
2017-07-18T06:04:49.755Z,3.53
2017-07-18T06:07:17.168Z,2.97
2017-07-18T06:09:45.367Z,3.60
2017-07-18T06:12:12.787Z,3.47
2017-07-18T06:14:40.210Z,3.10
2017-07-18T06:17:07.629Z,3.53
2017-07-18T06:19:35.051Z,4.17
2017-07-18T06:22:02.474Z,4.43
2017-07-18T06:24:29.909Z,3.87
2017-07-18T06:26:57.321Z,3.50
2017-07-18T06:29:24.756Z,3.80
2017-07-18T06:31:52.178Z,3.27
2017-07-18T06:34:19.637Z,3.60
2017-07-18T06:36:47.066Z,4.20
2017-07-18T06:39:15.259Z,3.70
2017-07-18T06:41:42.668Z,3.50
2017-07-18T06:44:10.163Z,2.93
2017-07-18T06:46:38.353Z,3.10
2017-07-18T06:49:05.776Z,3.10
2017-07-18T06:51:33.962Z,3.70
2017-07-18T06:54:01.413Z,3.20
2017-07-18T06:56:29.630Z,3.40
2017-07-18T06:58:57.037Z,3.10
2017-07-18T07:01:25.301Z,3.27
2017-07-18T07:03:52.840Z,3.70
2017-07-18T07:06:20.263Z,4.30
2017-07-18T07:08:47.682Z,3.80
2017-07-18T07:11:15.880Z,3.70
2017-07-18T07:13:43.319Z,4.40
2017-07-18T07:16:11.958Z,4.13
2017-07-18T07:18:39.386Z,3.23
2017-07-18T07:21:06.812Z,3.50
2017-07-18T07:23:34.250Z,3.87
2017-07-18T07:26:01.684Z,3.70
2017-07-18T07:28:29.126Z,3.97
2017-07-18T07:30:56.557Z,4.70
2017-07-18T07:33:23.983Z,4.07
2017-07-18T07:35:52.170Z,3.93
2017-07-18T07:38:19.792Z,4.60
2017-07-18T07:40:47.212Z,3.80
2017-07-18T07:43:14.657Z,3.40
2017-07-18T07:45:42.147Z,3.50
2017-07-18T07:48:09.595Z,3.70
2017-07-18T07:50:37.019Z,3.83
2017-07-18T07:53:04.450Z,3.30
2017-07-18T07:55:32.674Z,3.47
2017-07-18T07:58:00.091Z,4.03
2017-07-18T08:00:28.273Z,3.60
2017-07-18T08:02:55.713Z,4.10
2017-07-18T08:05:23.925Z,4.00
2017-07-18T08:07:51.337Z,3.40
2017-07-18T08:10:19.520Z,3.63
2017-07-18T08:12:47.712Z,4.70
2017-07-18T08:15:15.138Z,4.13
2017-07-18T08:17:43.356Z,4.30
2017-07-18T08:20:10.780Z,4.40
2017-07-18T08:22:38.974Z,3.90
2017-07-18T08:25:06.406Z,3.60
2017-07-18T08:27:34.586Z,3.70
2017-07-18T08:30:02.041Z,3.20
2017-07-18T08:32:30.222Z,3.07
2017-07-18T08:34:57.640Z,3.90
2017-07-18T08:37:25.069Z,4.00
2017-07-18T08:39:52.493Z,3.47
2017-07-18T08:42:19.931Z,3.40
2017-07-18T08:44:48.120Z,3.77
2017-07-18T08:47:15.549Z,3.83
2017-07-18T08:49:43.736Z,3.30
2017-07-18T08:52:11.180Z,4.57
2017-07-18T08:54:39.415Z,4.00
2017-07-18T08:57:06.839Z,4.40
2017-07-18T08:59:34.258Z,4.00
2017-07-18T09:02:02.455Z,3.67
2017-07-18T09:04:29.881Z,3.83
2017-07-18T09:06:57.295Z,3.63
2017-07-18T09:09:24.731Z,3.60
2017-07-18T09:11:52.158Z,4.50
2017-07-18T09:14:20.386Z,3.70
2017-07-18T09:16:47.796Z,4.60
2017-07-18T09:19:15.986Z,3.70
2017-07-18T09:21:43.443Z,4.60
2017-07-18T09:24:11.617Z,4.30
2017-07-18T09:26:39.046Z,3.97
2017-07-18T09:29:06.475Z,5.40
2017-07-18T09:31:33.906Z,4.70
2017-07-18T09:34:01.349Z,5.37
2017-07-18T09:36:28.769Z,3.77
2017-07-18T09:38:56.229Z,3.97
2017-07-18T09:41:23.640Z,4.43
2017-07-18T09:43:51.830Z,4.37
2017-07-18T09:46:19.268Z,4.47
2017-07-18T09:48:47.453Z,3.97
2017-07-18T09:51:14.877Z,4.30
2017-07-18T09:53:42.304Z,3.80
2017-07-18T09:58:38.209Z,4.00
2017-07-18T10:01:05.641Z,4.23
2017-07-18T10:03:33.854Z,4.47
2017-07-18T10:06:01.307Z,4.23
2017-07-18T10:08:28.718Z,4.73
2017-07-18T10:10:56.140Z,5.10
2017-07-18T10:13:23.568Z,4.33
2017-07-18T10:15:51.027Z,4.03
2017-07-18T10:18:18.448Z,5.17
2017-07-18T10:20:45.876Z,5.13
2017-07-18T10:23:13.301Z,4.80
2017-07-18T10:25:40.724Z,4.10
2017-07-18T10:28:08.156Z,4.97
2017-07-18T10:30:36.361Z,4.17
2017-07-18T10:33:03.776Z,3.83
2017-07-18T10:35:31.205Z,3.97
2017-07-18T10:37:58.653Z,4.03
2017-07-18T10:40:26.084Z,4.30
2017-07-18T10:42:53.496Z,4.80
2017-07-18T10:45:20.925Z,3.60
2017-07-18T10:47:48.369Z,5.43
2017-07-18T10:50:15.789Z,3.87
2017-07-18T10:52:43.986Z,4.27
2017-07-18T10:55:11.424Z,4.07
2017-07-18T10:57:39.609Z,4.70
2017-07-18T11:00:07.049Z,4.23
2017-07-18T11:02:35.259Z,4.10
2017-07-18T11:05:02.665Z,3.90
2017-07-18T11:07:30.096Z,4.77
2017-07-18T11:09:57.524Z,4.00
2017-07-18T11:12:24.934Z,4.73
2017-07-18T11:14:53.134Z,4.50
2017-07-18T11:17:20.609Z,4.57
2017-07-18T11:19:48.093Z,4.40
2017-07-18T11:22:15.520Z,4.63
2017-07-18T11:24:42.936Z,4.13
2017-07-18T11:27:11.131Z,4.47
2017-07-18T11:29:38.553Z,4.10
2017-07-18T11:32:05.980Z,4.40
2017-07-18T11:34:33.423Z,3.90
2017-07-18T11:37:00.832Z,4.43
2017-07-18T11:39:29.049Z,4.73
2017-07-18T11:41:56.465Z,4.20
2017-07-18T11:46:51.120Z,5.40
2017-07-18T11:49:18.554Z,4.40
2017-07-18T11:51:45.990Z,4.47
2017-07-18T11:54:13.428Z,4.30
2017-07-18T11:56:41.646Z,4.73
2017-07-18T11:59:09.098Z,4.63
2017-07-18T12:01:36.536Z,3.87
2017-07-18T12:04:04.721Z,4.97
2017-07-18T12:06:32.157Z,5.70
2017-07-18T12:09:00.340Z,4.33
2017-07-18T12:11:27.772Z,4.20
2017-07-18T12:13:55.195Z,4.87
2017-07-18T12:16:22.615Z,4.20
2017-07-18T12:19:00.111Z,4.30
2017-07-18T12:21:27.529Z,4.37
2017-07-18T12:23:55.726Z,4.27
2017-07-18T12:26:23.160Z,4.27
2017-07-18T12:28:51.376Z,6.23
2017-07-18T12:31:18.841Z,4.70
2017-07-18T12:33:46.259Z,4.30
2017-07-18T12:36:14.475Z,4.90
2017-07-18T12:38:41.916Z,4.70
2017-07-18T12:41:09.368Z,4.10
2017-07-18T12:43:36.843Z,5.17
2017-07-18T12:46:04.299Z,4.30
2017-07-18T12:48:31.723Z,4.60
2017-07-18T12:50:59.145Z,4.63
2017-07-18T12:53:26.579Z,12.00
2017-07-18T12:55:54.004Z,11.90
2017-07-18T12:58:21.444Z,6.67
2017-07-18T13:00:48.928Z,18.43
2017-07-18T13:03:16.356Z,7.83
2017-07-18T13:05:43.793Z,4.70
2017-07-18T13:08:11.217Z,3.90
2017-07-18T13:10:39.451Z,4.20
2017-07-18T13:13:06.868Z,3.70
2017-07-18T13:15:34.295Z,3.73
2017-07-18T13:18:01.722Z,4.03
2017-07-18T13:20:29.182Z,3.20
2017-07-18T13:22:56.586Z,4.17
2017-07-18T13:25:24.012Z,4.60
2017-07-18T13:27:51.534Z,4.20
2017-07-18T13:30:18.992Z,4.10
2017-07-18T13:32:46.543Z,4.23
2017-07-18T13:35:13.957Z,4.10
2017-07-18T13:37:42.153Z,3.60
2017-07-18T13:40:09.586Z,3.80
2017-07-18T13:42:37.084Z,3.97
2017-07-18T13:45:04.520Z,4.00
2017-07-18T13:47:31.943Z,3.50
2017-07-18T13:49:59.379Z,4.20
2017-07-18T13:52:26.883Z,3.73
2017-07-18T13:54:54.449Z,3.93
2017-07-18T13:57:21.874Z,3.80
2017-07-18T13:59:49.358Z,3.43
2017-07-18T14:02:16.785Z,4.00
2017-07-18T14:04:44.208Z,4.70
2017-07-18T14:07:11.628Z,4.10
2017-07-18T14:09:39.104Z,4.40
2017-07-18T14:12:06.532Z,4.10
2017-07-18T14:14:33.961Z,3.80
2017-07-18T14:17:01.382Z,4.33
2017-07-18T14:19:28.814Z,4.97
2017-07-18T14:21:56.239Z,4.40
2017-07-18T14:24:23.684Z,4.50
2017-07-18T14:26:51.119Z,5.00
2017-07-18T14:29:19.370Z,4.57
2017-07-18T14:31:46.811Z,4.40
2017-07-18T14:34:14.227Z,4.50
2017-07-18T14:36:41.686Z,4.07
2017-07-18T14:39:09.189Z,4.10
2017-07-18T14:41:36.601Z,4.40
2017-07-18T14:44:04.016Z,3.67
2017-07-18T14:46:31.442Z,4.03
2017-07-18T14:48:58.880Z,3.90
2017-07-18T14:51:26.317Z,4.17
2017-07-18T14:53:53.769Z,4.30
2017-07-18T14:56:21.184Z,4.50
2017-07-18T14:58:48.731Z,4.10
2017-07-18T15:01:16.161Z,4.83
2017-07-18T15:03:43.593Z,4.30
2017-07-18T15:06:11.791Z,4.43
2017-07-18T15:08:39.221Z,4.77
2017-07-18T15:11:06.710Z,4.07
2017-07-18T15:13:34.136Z,4.13
2017-07-18T15:16:01.568Z,4.50
2017-07-18T15:18:29.047Z,4.60
2017-07-18T15:20:56.543Z,4.80
2017-07-18T15:23:24.002Z,4.87
2017-07-18T15:25:51.426Z,4.33
2017-07-18T15:28:18.915Z,4.87
2017-07-18T15:30:46.377Z,5.33
2017-07-18T15:33:13.830Z,4.93
2017-07-18T15:35:41.253Z,4.90
2017-07-18T15:38:08.744Z,4.30
2017-07-18T15:40:36.156Z,4.80
2017-07-18T15:43:03.639Z,5.23
2017-07-18T15:45:31.053Z,4.70
2017-07-18T15:47:59.245Z,4.13
2017-07-18T15:50:26.665Z,5.70
2017-07-18T15:52:54.092Z,5.27
2017-07-18T15:55:21.520Z,4.83
2017-07-18T15:57:48.941Z,6.60
2017-07-18T16:00:16.370Z,4.50
2017-07-18T16:02:43.808Z,4.50
2017-07-18T16:05:11.314Z,4.60
2017-07-18T16:07:38.741Z,4.60
2017-07-18T16:10:06.157Z,5.50
2017-07-18T16:12:33.576Z,4.70
2017-07-18T16:15:01.000Z,4.37
2017-07-18T16:17:28.456Z,5.37
2017-07-18T16:19:55.947Z,5.00
2017-07-18T16:22:23.364Z,4.30
2017-07-18T16:24:51.557Z,4.93
2017-07-18T16:27:18.964Z,5.00
2017-07-18T16:29:46.432Z,4.80
2017-07-18T16:32:13.864Z,5.40
2017-07-18T16:34:41.274Z,5.30
2017-07-18T16:37:08.705Z,4.50
2017-07-18T16:39:36.926Z,5.13
2017-07-18T16:42:04.366Z,4.90
2017-07-18T16:44:31.790Z,4.50
2017-07-18T16:46:59.997Z,6.10
2017-07-18T16:49:27.428Z,6.10
2017-07-18T16:51:55.626Z,4.63
2017-07-18T16:54:23.102Z,5.23
2017-07-18T16:56:50.528Z,4.20
2017-07-18T16:59:17.945Z,5.37
2017-07-18T17:01:46.207Z,4.60
2017-07-18T17:04:13.628Z,5.33
2017-07-18T17:06:41.074Z,5.60
2017-07-18T17:09:08.510Z,5.53
2017-07-18T17:11:36.699Z,4.53
2017-07-18T17:14:04.233Z,4.13
2017-07-18T17:16:32.435Z,3.93
2017-07-18T17:18:59.863Z,4.83
2017-07-18T17:21:28.048Z,4.47
2017-07-18T17:23:55.540Z,4.60
2017-07-18T17:26:22.968Z,4.50
2017-07-18T17:28:50.413Z,4.40
2017-07-18T17:31:17.863Z,5.40
2017-07-18T17:33:46.060Z,6.00
2017-07-18T17:36:13.473Z,5.50
2017-07-18T17:38:40.896Z,5.47
2017-07-18T17:41:08.349Z,4.53
2017-07-18T17:43:35.770Z,5.30
2017-07-18T17:46:03.217Z,8.40
2017-07-18T17:48:31.408Z,6.67
2017-07-18T17:50:58.829Z,5.80
2017-07-18T17:53:26.244Z,5.03
2017-07-18T17:55:53.664Z,4.33
2017-07-18T17:58:21.860Z,5.20
2017-07-18T18:00:49.289Z,4.40
2017-07-18T18:03:17.497Z,4.10
2017-07-18T18:05:44.902Z,4.40
2017-07-18T18:08:12.329Z,5.50
2017-07-18T18:10:39.776Z,4.70
2017-07-18T18:13:07.208Z,3.90
2017-07-18T18:15:34.624Z,4.13
2017-07-18T18:18:02.053Z,4.37
2017-07-18T18:20:29.464Z,4.27
2017-07-18T18:22:56.893Z,4.93
2017-07-18T18:25:24.414Z,4.67
2017-07-18T18:27:51.827Z,4.70
2017-07-18T18:30:20.018Z,5.17
2017-07-18T18:32:47.457Z,5.03
2017-07-18T18:35:15.657Z,4.80
2017-07-18T18:37:43.080Z,4.17
2017-07-18T18:40:11.266Z,4.00
2017-07-18T18:42:38.693Z,3.73
2017-07-18T18:45:06.138Z,4.40
2017-07-18T18:47:33.953Z,4.40
2017-07-18T18:50:01.389Z,3.90
2017-07-18T18:52:29.589Z,4.50
2017-07-18T18:54:57.013Z,4.23
2017-07-18T18:57:25.210Z,4.60
2017-07-18T18:59:52.667Z,4.10
2017-07-18T19:02:20.096Z,3.83
2017-07-18T19:04:48.301Z,4.40
2017-07-18T19:07:15.721Z,3.97
2017-07-18T19:09:43.130Z,4.53
2017-07-18T19:12:10.554Z,4.30
2017-07-18T19:14:37.973Z,4.10
2017-07-18T19:17:05.580Z,4.40
2017-07-18T19:19:33.000Z,4.10
2017-07-18T19:22:01.194Z,3.63
2017-07-18T19:24:28.613Z,4.60
2017-07-18T19:26:56.030Z,4.00
2017-07-18T19:29:23.474Z,3.80
2017-07-18T19:31:50.885Z,4.27
2017-07-18T19:34:18.320Z,4.50
2017-07-18T19:36:45.745Z,4.10
2017-07-18T19:39:13.264Z,4.40
2017-07-18T19:41:40.685Z,4.70
2017-07-18T19:44:08.348Z,4.30
2017-07-18T19:46:36.016Z,4.60
2017-07-18T19:49:03.433Z,4.70
2017-07-18T19:51:30.872Z,5.53
2017-07-18T19:53:58.297Z,5.07
2017-07-18T19:56:25.725Z,4.90
2017-07-18T19:58:53.172Z,4.93
2017-07-18T20:01:20.669Z,5.50
2017-07-18T20:03:48.086Z,5.20
2017-07-18T20:06:15.536Z,5.40
2017-07-18T20:08:42.948Z,5.27
2017-07-18T20:11:11.394Z,5.63
2017-07-18T20:13:38.820Z,5.20
2017-07-18T20:16:06.241Z,5.40
2017-07-18T20:18:34.475Z,4.70
2017-07-18T20:21:01.887Z,4.87
2017-07-18T20:23:29.310Z,4.93
2017-07-18T20:25:56.724Z,5.20
2017-07-18T20:28:24.176Z,4.47
2017-07-18T20:30:51.599Z,4.77
2017-07-18T20:33:19.049Z,4.37
2017-07-18T20:35:47.229Z,4.33
2017-07-18T20:38:15.446Z,4.33
2017-07-18T20:40:42.863Z,4.70
2017-07-18T20:43:11.064Z,5.17
2017-07-18T20:45:38.508Z,4.20
2017-07-18T20:48:05.939Z,4.63
2017-07-18T20:50:34.134Z,4.93
2017-07-18T20:53:01.574Z,4.70
2017-07-18T20:55:29.780Z,4.53
2017-07-18T20:57:57.197Z,4.70
2017-07-18T21:00:24.604Z,4.40
2017-07-18T21:02:52.030Z,4.57
2017-07-18T21:05:19.510Z,5.43
2017-07-18T21:07:47.181Z,5.20
2017-07-18T21:10:14.973Z,4.67
2017-07-18T21:12:42.402Z,5.00
2017-07-18T21:15:10.085Z,4.60
2017-07-18T21:17:37.698Z,5.00
2017-07-18T21:20:05.143Z,4.90
2017-07-18T21:22:32.637Z,4.47
2017-07-18T21:25:00.107Z,5.10
2017-07-18T21:27:28.496Z,5.07
2017-07-18T21:29:55.949Z,4.70
2017-07-18T21:32:23.430Z,5.37
2017-07-18T21:34:51.826Z,4.77
2017-07-18T21:37:20.019Z,5.30
2017-07-18T21:39:47.463Z,5.33
2017-07-18T21:42:14.884Z,5.27
2017-07-18T21:44:42.377Z,5.40
2017-07-18T21:47:09.934Z,5.00
2017-07-18T21:49:37.392Z,5.53
2017-07-18T21:52:04.932Z,5.10
2017-07-18T21:54:33.203Z,5.67
2017-07-18T21:57:00.913Z,4.90
2017-07-18T21:59:28.440Z,5.60
2017-07-18T22:01:55.906Z,5.87
2017-07-18T22:04:23.367Z,5.17
2017-07-18T22:06:50.832Z,5.07
2017-07-18T22:09:18.262Z,5.23
2017-07-18T22:11:45.750Z,5.57
2017-07-18T22:14:13.276Z,5.40
2017-07-18T22:16:40.715Z,5.53
2017-07-18T22:19:08.157Z,7.03
2017-07-18T22:21:35.666Z,5.87
2017-07-18T22:24:03.079Z,5.60
2017-07-18T22:26:30.522Z,5.17
2017-07-18T22:28:58.094Z,5.53
2017-07-18T22:31:25.551Z,5.47
2017-07-18T22:33:53.071Z,5.20
2017-07-18T22:36:20.594Z,5.47
2017-07-18T22:38:48.867Z,5.80
2017-07-18T22:41:17.117Z,8.07
2017-07-18T22:43:44.664Z,5.93
2017-07-18T22:46:12.872Z,5.20
2017-07-18T22:48:41.117Z,5.20
2017-07-18T22:51:08.648Z,5.80
2017-07-18T22:53:36.121Z,5.40
2017-07-18T22:56:03.592Z,5.60
2017-07-18T22:58:31.196Z,5.20
2017-07-18T23:00:58.808Z,5.27
2017-07-18T23:03:26.326Z,5.57
2017-07-18T23:05:53.845Z,5.57
2017-07-18T23:08:21.326Z,5.70
2017-07-18T23:10:48.805Z,5.53
2017-07-18T23:13:16.481Z,5.47
2017-07-18T23:15:43.959Z,5.27
2017-07-18T23:18:11.415Z,5.30
2017-07-18T23:20:38.875Z,5.20
2017-07-18T23:23:06.309Z,5.30
2017-07-18T23:25:33.744Z,5.60
2017-07-18T23:28:18.036Z,5.60
2017-07-18T23:30:57.478Z,5.53
2017-07-18T23:33:30.573Z,5.20
2017-07-18T23:36:11.508Z,5.80
2017-07-18T23:38:46.321Z,5.03
2017-07-18T23:41:17.824Z,5.50
2017-07-18T23:44:03.143Z,6.00
2017-07-18T23:46:48.085Z,5.20
2017-07-18T23:49:15.925Z,5.50
2017-07-18T23:51:43.378Z,5.53
2017-07-18T23:54:10.812Z,5.80
2017-07-18T23:56:38.238Z,5.30
2017-07-18T23:59:05.670Z,5.77
